createdAt,value
2018-09-11T00:00:31.297Z,64.22
2018-09-11T00:03:00.107Z,64.34
2018-09-11T00:05:28.956Z,62.33
2018-09-11T00:07:57.641Z,62.82
2018-09-11T00:10:26.456Z,64.12
2018-09-11T00:12:55.184Z,63.76
2018-09-11T00:15:24.221Z,64.28
2018-09-11T00:17:52.886Z,64.34
2018-09-11T00:20:21.551Z,64.17
2018-09-11T00:22:50.364Z,64.83
2018-09-11T00:25:19.071Z,64.90
2018-09-11T00:27:47.689Z,65.42
2018-09-11T00:30:16.340Z,64.63
2018-09-11T00:32:44.975Z,64.79
2018-09-11T00:35:13.657Z,64.32
2018-09-11T00:37:42.340Z,64.27
2018-09-11T00:40:11.020Z,63.83
2018-09-11T00:42:39.676Z,64.27
2018-09-11T00:45:08.411Z,64.64
2018-09-11T00:47:37.056Z,65.23
2018-09-11T00:50:05.997Z,63.95
2018-09-11T00:52:34.659Z,63.32
2018-09-11T00:55:03.416Z,63.00
2018-09-11T00:57:32.089Z,63.22
2018-09-11T01:00:00.689Z,62.80
2018-09-11T01:02:29.412Z,62.90
2018-09-11T01:04:58.056Z,62.58
2018-09-11T01:07:26.806Z,63.07
2018-09-11T01:09:55.525Z,61.48
2018-09-11T01:12:24.122Z,62.04
2018-09-11T01:14:52.926Z,61.91
2018-09-11T01:17:21.540Z,62.42
2018-09-11T01:19:50.280Z,61.77
2018-09-11T01:22:18.926Z,62.85
2018-09-11T01:24:47.580Z,62.19
2018-09-11T01:27:16.210Z,62.27
2018-09-11T01:29:44.919Z,62.31
2018-09-11T01:32:13.626Z,62.90
2018-09-11T01:34:42.256Z,62.09
2018-09-11T01:37:11.004Z,60.13
2018-09-11T01:39:39.669Z,61.81
2018-09-11T01:42:08.364Z,62.22
2018-09-11T01:44:37.001Z,61.34
2018-09-11T01:47:05.794Z,60.81
2018-09-11T01:49:34.471Z,61.25
2018-09-11T01:52:03.210Z,61.15
2018-09-11T01:54:31.840Z,61.88
2018-09-11T01:57:00.443Z,61.14
2018-09-11T01:59:29.060Z,61.74
2018-09-11T02:01:57.729Z,61.27
2018-09-11T02:04:26.394Z,61.96
2018-09-11T02:06:55.136Z,61.84
2018-09-11T02:09:23.744Z,62.18
2018-09-11T02:11:52.425Z,61.96
2018-09-11T02:14:21.084Z,61.58
2018-09-11T02:16:49.785Z,61.47
2018-09-11T02:19:18.729Z,62.22
2018-09-11T02:21:47.627Z,62.55
2018-09-11T02:24:16.246Z,62.58
2018-09-11T02:26:44.926Z,61.64
2018-09-11T02:29:13.547Z,62.54
2018-09-11T02:31:42.174Z,62.33
2018-09-11T02:34:10.883Z,62.20
2018-09-11T02:36:39.539Z,62.35
2018-09-11T02:39:10.140Z,62.41
2018-09-11T02:41:38.895Z,62.09
2018-09-11T02:44:08.075Z,61.56
2018-09-11T02:46:36.674Z,62.41
2018-09-11T02:49:05.400Z,61.84
2018-09-11T02:51:34.830Z,61.29
2018-09-11T02:54:03.709Z,62.17
2018-09-11T02:56:32.645Z,62.45
2018-09-11T02:59:01.421Z,62.17
2018-09-11T03:01:30.080Z,62.76
2018-09-11T03:03:58.717Z,62.57
2018-09-11T03:06:27.414Z,61.86
2018-09-11T03:08:56.061Z,60.67
2018-09-11T03:11:24.720Z,61.38
2018-09-11T03:13:53.371Z,62.63
2018-09-11T03:16:22.670Z,61.86
2018-09-11T03:18:51.376Z,61.23
2018-09-11T03:21:19.999Z,62.11
2018-09-11T03:23:48.656Z,62.68
2018-09-11T03:26:17.528Z,60.50
2018-09-11T03:28:46.505Z,61.79
2018-09-11T03:31:15.164Z,61.25
2018-09-11T03:33:44.054Z,61.57
2018-09-11T03:36:13.464Z,62.27
2018-09-11T03:38:42.125Z,60.94
2018-09-11T03:41:10.776Z,61.73
2018-09-11T03:43:40.231Z,61.40
2018-09-11T03:46:09.541Z,61.54
2018-09-11T03:48:38.369Z,60.33
2018-09-11T03:51:07.157Z,61.61
2018-09-11T03:53:36.733Z,61.06
2018-09-11T03:56:05.905Z,60.51
2018-09-11T03:58:35.479Z,62.37
2018-09-11T04:01:04.281Z,60.96
2018-09-11T04:03:33.083Z,59.88
2018-09-11T04:06:01.774Z,61.22
2018-09-11T04:08:30.424Z,60.96
2018-09-11T04:10:59.114Z,61.11
2018-09-11T04:13:27.725Z,61.91
2018-09-11T04:15:56.401Z,62.73
2018-09-11T04:18:25.005Z,60.77
2018-09-11T04:20:53.779Z,61.83
2018-09-11T04:23:22.399Z,61.71
2018-09-11T04:25:51.141Z,61.35
2018-09-11T04:28:19.770Z,61.24
2018-09-11T04:30:48.564Z,60.70
2018-09-11T04:33:17.216Z,60.84
2018-09-11T04:35:46.036Z,61.43
2018-09-11T04:38:14.640Z,61.07
2018-09-11T04:40:43.251Z,61.73
2018-09-11T04:43:11.965Z,61.94
2018-09-11T04:45:40.555Z,60.39
2018-09-11T04:48:09.295Z,61.24
2018-09-11T04:50:37.986Z,61.97
2018-09-11T04:53:06.698Z,60.47
2018-09-11T04:55:35.356Z,61.59
2018-09-11T04:58:04.109Z,61.60
2018-09-11T05:00:32.796Z,61.95
2018-09-11T05:03:01.398Z,62.33
2018-09-11T05:05:30.155Z,62.84
2018-09-11T05:07:58.894Z,61.71
2018-09-11T05:10:27.626Z,60.57
2018-09-11T05:12:56.315Z,62.37
2018-09-11T05:15:25.054Z,62.50
2018-09-11T05:17:53.775Z,61.76
2018-09-11T05:20:22.458Z,62.75
2018-09-11T05:22:51.123Z,61.07
2018-09-11T05:25:19.849Z,61.47
2018-09-11T05:27:48.544Z,61.59
2018-09-11T05:30:17.153Z,62.13
2018-09-11T05:32:45.828Z,62.64
2018-09-11T05:35:14.511Z,61.81
2018-09-11T05:37:43.208Z,61.86
2018-09-11T05:40:11.930Z,60.97
2018-09-11T05:42:40.633Z,61.58
2018-09-11T05:45:09.360Z,62.19
2018-09-11T05:47:38.069Z,61.56
2018-09-11T05:50:06.785Z,61.56
2018-09-11T05:52:35.429Z,61.75
2018-09-11T05:55:05.028Z,61.29
2018-09-11T05:57:33.758Z,61.76
2018-09-11T06:00:02.684Z,62.09
2018-09-11T06:02:31.509Z,60.45
2018-09-11T06:05:00.185Z,61.60
2018-09-11T06:07:28.818Z,61.50
2018-09-11T06:09:57.582Z,60.90
2018-09-11T06:12:26.919Z,61.48
2018-09-11T06:14:55.584Z,61.99
2018-09-11T06:17:24.260Z,61.53
2018-09-11T06:19:52.919Z,61.26
2018-09-11T06:22:21.763Z,62.46
2018-09-11T06:24:50.658Z,61.34
2018-09-11T06:27:20.018Z,61.38
2018-09-11T06:29:49.357Z,61.36
2018-09-11T06:32:18.241Z,61.57
2018-09-11T06:34:46.904Z,61.28
2018-09-11T06:37:15.641Z,60.36
2018-09-11T06:39:44.533Z,61.29
2018-09-11T06:42:14.188Z,59.38
2018-09-11T06:44:43.684Z,61.01
2018-09-11T06:47:12.513Z,59.30
2018-09-11T06:49:41.699Z,58.68
2018-09-11T06:52:10.565Z,59.82
2018-09-11T06:54:39.427Z,58.94
2018-09-11T06:57:08.213Z,58.69
2018-09-11T06:59:37.609Z,59.64
2018-09-11T07:02:06.440Z,60.51
2018-09-11T07:04:35.363Z,60.25
2018-09-11T07:07:04.984Z,60.23
2018-09-11T07:09:34.887Z,60.26
2018-09-11T07:12:03.804Z,59.48
2018-09-11T07:14:33.251Z,57.70
2018-09-11T07:17:02.223Z,57.54
2018-09-11T07:19:31.212Z,59.13
2018-09-11T07:22:00.248Z,58.62
2018-09-11T07:24:29.300Z,58.05
2018-09-11T07:26:58.289Z,56.97
2018-09-11T07:29:27.238Z,56.67
2018-09-11T07:31:55.943Z,57.13
2018-09-11T07:34:24.744Z,57.30
2018-09-11T07:36:53.453Z,57.25
2018-09-11T07:39:22.285Z,55.79
2018-09-11T07:41:51.104Z,55.81
2018-09-11T07:44:20.479Z,56.21
2018-09-11T07:46:49.350Z,55.61
2018-09-11T07:49:18.340Z,55.66
2018-09-11T07:51:47.193Z,55.08
2018-09-11T07:54:15.959Z,53.32
2018-09-11T07:56:44.904Z,53.61
2018-09-11T07:59:13.860Z,53.48
2018-09-11T08:01:43.293Z,53.15
2018-09-11T08:04:12.318Z,51.74
2018-09-11T08:06:41.053Z,52.59
2018-09-11T08:09:12.400Z,53.05
2018-09-11T08:11:41.279Z,51.71
2018-09-11T08:14:11.165Z,51.68
2018-09-11T08:16:40.821Z,53.58
2018-09-11T08:19:09.670Z,52.35
2018-09-11T08:21:38.544Z,51.58
2018-09-11T08:24:07.265Z,51.54
2018-09-11T08:26:36.011Z,51.71
2018-09-11T08:29:05.729Z,51.46
2018-09-11T08:31:34.663Z,52.25
2018-09-11T08:34:03.836Z,51.99
2018-09-11T08:36:33.048Z,51.72
2018-09-11T08:39:01.844Z,51.61
2018-09-11T08:41:30.669Z,50.58
2018-09-11T08:43:59.446Z,50.53
2018-09-11T08:46:28.391Z,50.63
2018-09-11T08:48:57.199Z,50.97
2018-09-11T08:51:26.074Z,51.12
2018-09-11T08:53:54.950Z,50.52
2018-09-11T08:56:41.149Z,50.71
2018-09-11T09:02:33.325Z,50.75
2018-09-11T09:05:02.699Z,50.10
2018-09-11T09:07:31.579Z,49.91
2018-09-11T09:10:00.584Z,49.32
2018-09-11T09:12:29.297Z,49.50
2018-09-11T09:14:58.193Z,48.05
2018-09-11T09:17:26.924Z,49.18
2018-09-11T09:19:55.999Z,48.78
2018-09-11T09:22:24.780Z,49.06
2018-09-11T09:24:53.704Z,48.43
2018-09-11T09:27:22.572Z,49.48
2018-09-11T09:29:51.444Z,48.87
2018-09-11T09:32:20.935Z,49.17
2018-09-11T09:34:49.983Z,48.86
2018-09-11T09:37:18.873Z,48.68
2018-09-11T09:39:47.739Z,48.74
2018-09-11T09:42:16.659Z,48.40
2018-09-11T09:44:45.296Z,48.57
2018-09-11T09:47:14.289Z,49.54
2018-09-11T09:49:43.639Z,48.87
2018-09-11T09:52:12.601Z,48.59
2018-09-11T09:54:41.649Z,48.43
2018-09-11T09:57:11.943Z,47.56
2018-09-11T09:59:41.335Z,48.05
2018-09-11T10:02:15.309Z,48.24
2018-09-11T10:04:44.177Z,46.95
2018-09-11T10:07:12.853Z,46.57
2018-09-11T10:09:41.560Z,46.43
2018-09-11T10:12:11.393Z,46.48
2018-09-11T10:20:07.354Z,45.12
2018-09-11T10:22:36.073Z,43.84
2018-09-11T10:25:05.170Z,45.72
2018-09-11T10:27:34.233Z,45.55
2018-09-11T10:30:03.083Z,45.26
2018-09-11T10:32:32.014Z,44.69
2018-09-11T10:35:00.904Z,44.60
2018-09-11T10:37:30.408Z,44.06
2018-09-11T10:40:00.125Z,44.30
2018-09-11T10:42:29.092Z,44.96
2018-09-11T10:44:57.821Z,44.09
2018-09-11T10:47:26.553Z,43.86
2018-09-11T10:49:56.124Z,43.35
2018-09-11T10:52:25.284Z,43.61
2018-09-11T10:54:54.251Z,43.54
2018-09-11T10:57:23.069Z,43.33
2018-09-11T10:59:51.825Z,43.78
2018-09-11T11:02:20.772Z,43.65
2018-09-11T11:04:49.495Z,43.63
2018-09-11T11:07:18.289Z,43.99
2018-09-11T11:09:47.146Z,43.23
2018-09-11T11:12:16.564Z,43.99
2018-09-11T11:14:45.544Z,43.10
2018-09-11T11:17:14.373Z,42.44
2018-09-11T11:19:43.204Z,43.40
2018-09-11T11:22:12.393Z,42.67
2018-09-11T11:24:41.271Z,42.21
2018-09-11T11:27:10.153Z,41.87
2018-09-11T11:29:39.783Z,42.19
2018-09-11T11:32:08.634Z,42.18
2018-09-11T11:34:37.539Z,42.70
2018-09-11T11:37:07.170Z,42.03
2018-09-11T11:39:35.873Z,41.98
2018-09-11T11:42:05.228Z,42.29
2018-09-11T11:44:33.875Z,41.90
2018-09-11T11:47:02.783Z,40.97
2018-09-11T11:49:31.728Z,41.52
2018-09-11T11:52:00.423Z,40.98
2018-09-11T11:54:29.295Z,41.19
2018-09-11T11:56:58.612Z,41.42
2018-09-11T11:59:27.382Z,40.39
2018-09-11T12:01:56.651Z,41.08
2018-09-11T12:04:25.565Z,40.87
2018-09-11T12:06:55.103Z,41.03
2018-09-11T12:09:23.733Z,41.99
2018-09-11T12:11:52.429Z,41.54
2018-09-11T12:14:21.129Z,41.47
2018-09-11T12:16:49.812Z,40.61
2018-09-11T12:19:18.557Z,40.88
2018-09-11T12:21:47.245Z,41.63
2018-09-11T12:24:15.933Z,41.21
2018-09-11T12:26:44.760Z,40.35
2018-09-11T12:29:13.938Z,39.61
2018-09-11T12:31:43.475Z,40.36
2018-09-11T12:34:12.408Z,40.08
2018-09-11T12:36:41.175Z,39.91
2018-09-11T12:39:10.494Z,40.17
2018-09-11T12:41:40.006Z,39.38
2018-09-11T12:44:09.144Z,39.95
2018-09-11T12:46:38.358Z,39.36
2018-09-11T12:49:07.109Z,39.59
2018-09-11T12:51:36.163Z,40.81
2018-09-11T12:54:05.225Z,39.66
2018-09-11T12:56:34.463Z,38.57
2018-09-11T12:59:03.406Z,38.61
2018-09-11T13:01:32.258Z,38.55
2018-09-11T13:04:01.134Z,38.34
2018-09-11T13:06:30.142Z,38.07
2018-09-11T13:08:59.308Z,38.38
2018-09-11T13:11:28.188Z,37.73
2018-09-11T13:13:57.719Z,38.12
2018-09-11T13:16:26.737Z,38.49
2018-09-11T13:18:55.528Z,38.19
2018-09-11T13:21:24.404Z,37.01
2018-09-11T13:23:53.334Z,37.15
2018-09-11T13:26:22.398Z,37.37
2018-09-11T13:28:51.248Z,37.76
2018-09-11T13:31:20.015Z,37.47
2018-09-11T13:33:49.037Z,38.06
2018-09-11T13:36:17.772Z,37.44
2018-09-11T13:38:46.727Z,38.26
2018-09-11T13:41:15.413Z,38.14
2018-09-11T13:43:44.034Z,38.12
2018-09-11T13:46:13.142Z,37.75
2018-09-11T13:48:42.734Z,37.44
2018-09-11T13:51:12.162Z,38.10
2018-09-11T13:53:41.000Z,36.85
2018-09-11T13:56:10.237Z,37.24
2018-09-11T13:58:39.081Z,36.71
2018-09-11T14:01:09.111Z,36.64
2018-09-11T14:03:38.900Z,37.44
2018-09-11T14:06:07.739Z,37.51
2018-09-11T14:08:36.890Z,37.90
2018-09-11T14:11:05.765Z,37.46
2018-09-11T14:13:34.527Z,37.81
2018-09-11T14:16:03.398Z,37.99
2018-09-11T14:18:33.262Z,36.67
2018-09-11T14:21:02.363Z,36.07
2018-09-11T14:23:31.264Z,37.05
2018-09-11T14:26:00.480Z,36.95
2018-09-11T14:28:29.453Z,36.96
2018-09-11T14:30:58.683Z,36.86
2018-09-11T14:33:27.627Z,37.00
2018-09-11T14:35:57.192Z,37.52
2018-09-11T14:38:26.603Z,36.09
2018-09-11T14:40:55.299Z,36.23
2018-09-11T14:43:24.107Z,36.18
2018-09-11T14:45:53.604Z,36.89
2018-09-11T14:48:22.687Z,36.15
2018-09-11T14:50:52.044Z,35.86
2018-09-11T14:53:20.969Z,36.10
2018-09-11T14:55:49.881Z,36.92
2018-09-11T14:58:18.744Z,36.85
2018-09-11T15:00:47.654Z,36.98
2018-09-11T15:03:16.417Z,36.04
2018-09-11T15:05:45.277Z,36.24
2018-09-11T15:08:14.722Z,35.30
2018-09-11T15:10:43.853Z,36.54
2018-09-11T15:13:12.820Z,36.08
2018-09-11T15:15:42.558Z,36.43
2018-09-11T15:18:11.379Z,35.72
2018-09-11T15:20:40.343Z,36.91
2018-09-11T15:23:09.323Z,36.16
2018-09-11T15:25:38.083Z,36.52
2018-09-11T15:28:07.152Z,36.86
2018-09-11T15:30:35.879Z,36.59
2018-09-11T15:33:04.879Z,36.56
2018-09-11T15:35:33.757Z,36.08
2018-09-11T15:38:02.454Z,36.63
2018-09-11T15:40:31.169Z,36.60
2018-09-11T15:42:59.997Z,36.69
2018-09-11T15:45:29.154Z,36.81
2018-09-11T15:47:57.979Z,36.76
2018-09-11T15:50:27.111Z,37.19
2018-09-11T15:52:56.820Z,36.52
2018-09-11T15:55:25.629Z,36.48
2018-09-11T15:57:54.632Z,37.25
2018-09-11T16:00:23.360Z,36.69
2018-09-11T16:02:52.258Z,36.94
2018-09-11T16:05:22.152Z,36.66
2018-09-11T16:07:50.961Z,36.30
2018-09-11T16:10:20.028Z,37.08
2018-09-11T16:12:48.962Z,37.16
2018-09-11T16:15:17.767Z,37.46
2018-09-11T16:17:46.556Z,37.76
2018-09-11T16:20:15.568Z,36.37
2018-09-11T16:22:44.457Z,36.48
2018-09-11T16:25:14.462Z,37.17
2018-09-11T16:27:43.582Z,37.32
2018-09-11T16:30:13.291Z,37.85
2018-09-11T16:32:42.107Z,38.53
2018-09-11T16:35:10.949Z,37.46
2018-09-11T16:37:40.387Z,38.14
2018-09-11T16:40:09.343Z,37.26
2018-09-11T16:42:38.036Z,37.90
2018-09-11T16:45:07.362Z,38.51
2018-09-11T16:47:36.197Z,38.06
2018-09-11T16:50:05.223Z,37.88
2018-09-11T16:52:34.234Z,38.77
2018-09-11T16:55:03.285Z,37.64
2018-09-11T16:57:32.422Z,38.78
2018-09-11T17:00:01.238Z,37.61
2018-09-11T17:02:30.271Z,37.38
2018-09-11T17:04:59.687Z,38.36
2018-09-11T17:07:28.524Z,38.28
2018-09-11T17:09:57.539Z,38.38
2018-09-11T17:12:26.474Z,38.73
2018-09-11T17:14:55.625Z,39.83
2018-09-11T17:17:24.672Z,39.61
2018-09-11T17:19:53.393Z,38.93
2018-09-11T17:22:22.546Z,40.14
2018-09-11T17:24:51.497Z,38.84
2018-09-11T17:27:20.549Z,39.86
2018-09-11T17:29:49.105Z,41.71
2018-09-11T17:32:17.957Z,40.70
2018-09-11T17:34:46.732Z,40.73
2018-09-11T17:37:15.543Z,41.29
2018-09-11T17:39:45.019Z,41.50
2018-09-11T17:42:13.772Z,40.84
2018-09-11T17:44:42.532Z,40.46
2018-09-11T17:47:11.529Z,40.94
2018-09-11T17:49:40.647Z,42.28
2018-09-11T17:52:10.049Z,42.54
2018-09-11T17:54:38.812Z,41.47
2018-09-11T17:57:07.702Z,41.83
2018-09-11T17:59:37.524Z,43.39
2018-09-11T18:02:06.163Z,43.52
2018-09-11T18:04:35.207Z,42.68
2018-09-11T18:07:03.864Z,42.57
2018-09-11T18:09:32.829Z,42.51
2018-09-11T18:12:01.814Z,43.50
2018-09-11T18:14:30.692Z,42.55
2018-09-11T18:16:59.559Z,44.31
2018-09-11T18:19:28.699Z,43.54
2018-09-11T18:21:58.472Z,44.49
2018-09-11T18:24:27.589Z,44.53
2018-09-11T18:26:56.559Z,44.55
2018-09-11T18:29:25.835Z,44.90
2018-09-11T18:31:54.554Z,46.02
2018-09-11T18:34:23.262Z,45.80
2018-09-11T18:36:52.189Z,45.68
2018-09-11T18:39:20.862Z,46.65
2018-09-11T18:41:49.587Z,46.86
2018-09-11T18:44:18.312Z,46.71
2018-09-11T18:46:47.083Z,47.10
2018-09-11T18:49:15.758Z,47.58
2018-09-11T18:51:44.535Z,47.16
2018-09-11T18:54:13.252Z,48.28
2018-09-11T18:56:41.934Z,48.63
2018-09-11T18:59:10.624Z,49.13
2018-09-11T19:01:39.400Z,48.88
2018-09-11T19:04:08.157Z,48.65
2018-09-11T19:06:36.922Z,48.86
2018-09-11T19:09:08.150Z,48.74
2018-09-11T19:11:36.921Z,48.88
2018-09-11T19:14:05.914Z,49.50
2018-09-11T19:16:34.621Z,50.13
2018-09-11T19:19:03.295Z,49.85
2018-09-11T19:21:31.991Z,49.78
2018-09-11T19:24:00.660Z,50.07
2018-09-11T19:26:29.333Z,50.42
2018-09-11T19:28:58.403Z,50.48
2018-09-11T19:31:27.163Z,50.24
2018-09-11T19:33:55.889Z,50.68
2018-09-11T19:36:24.632Z,50.24
2018-09-11T19:38:53.304Z,49.78
2018-09-11T19:41:22.090Z,50.71
2018-09-11T19:43:50.763Z,51.18
2018-09-11T19:46:19.444Z,51.28
2018-09-11T19:48:48.166Z,50.74
2018-09-11T19:51:16.893Z,49.86
2018-09-11T19:53:45.642Z,50.80
2018-09-11T19:56:14.432Z,51.99
2018-09-11T19:58:43.108Z,51.26
2018-09-11T20:01:11.876Z,50.96
2018-09-11T20:03:40.929Z,51.94
2018-09-11T20:06:09.665Z,51.45
2018-09-11T20:08:38.358Z,51.91
2018-09-11T20:11:07.064Z,52.04
2018-09-11T20:13:35.826Z,51.87
2018-09-11T20:16:04.552Z,52.75
2018-09-11T20:18:33.267Z,51.69
2018-09-11T20:21:01.958Z,52.54
2018-09-11T20:23:30.701Z,52.29
2018-09-11T20:25:59.408Z,52.32
2018-09-11T20:28:28.103Z,52.18
2018-09-11T20:30:56.786Z,52.65
2018-09-11T20:33:25.513Z,53.66
2018-09-11T20:35:54.228Z,51.28
2018-09-11T20:38:23.048Z,52.31
2018-09-11T20:40:51.778Z,51.99
2018-09-11T20:43:20.500Z,52.20
2018-09-11T20:45:49.242Z,50.96
2018-09-11T20:48:17.951Z,51.86
2018-09-11T20:50:46.699Z,50.38
2018-09-11T20:53:15.408Z,49.89
2018-09-11T20:55:44.063Z,49.79
2018-09-11T20:58:12.771Z,50.33
2018-09-11T21:00:41.509Z,49.99
2018-09-11T21:03:11.113Z,51.06
2018-09-11T21:05:39.856Z,51.48
2018-09-11T21:08:08.617Z,50.42
2018-09-11T21:10:37.334Z,51.64
2018-09-11T21:13:06.127Z,51.59
2018-09-11T21:15:34.821Z,51.25
2018-09-11T21:18:03.607Z,51.81
2018-09-11T21:20:32.354Z,51.16
2018-09-11T21:23:01.034Z,51.00
2018-09-11T21:25:29.723Z,51.41
2018-09-11T21:27:58.428Z,51.00
2018-09-11T21:30:27.091Z,50.52
2018-09-11T21:32:55.776Z,51.88
2018-09-11T21:35:24.481Z,51.33
2018-09-11T21:37:53.287Z,51.24
2018-09-11T21:40:21.987Z,51.20
2018-09-11T21:42:50.686Z,51.12
2018-09-11T21:45:19.393Z,51.17
2018-09-11T21:47:48.120Z,50.86
2018-09-11T21:50:16.859Z,51.12
2018-09-11T21:52:45.532Z,49.60
2018-09-11T21:55:14.260Z,50.70
2018-09-11T21:57:42.920Z,51.85
2018-09-11T22:00:13.065Z,51.10
2018-09-11T22:02:41.869Z,50.36
2018-09-11T22:05:11.607Z,51.15
2018-09-11T22:07:41.337Z,50.99
2018-09-11T22:10:11.212Z,50.35
2018-09-11T22:12:39.898Z,51.36
2018-09-11T22:15:09.611Z,50.63
2018-09-11T22:17:38.365Z,50.14
2018-09-11T22:20:07.504Z,50.54
2018-09-11T22:22:36.205Z,51.08
2018-09-11T22:25:05.316Z,50.03
2018-09-11T22:27:34.083Z,50.46
2018-09-11T22:30:02.716Z,50.43
2018-09-11T22:32:31.437Z,51.06
2018-09-11T22:35:00.127Z,51.13
2018-09-11T22:37:28.779Z,49.87
2018-09-11T22:39:57.458Z,50.50
2018-09-11T22:42:26.167Z,51.10
2018-09-11T22:44:54.823Z,52.38
2018-09-11T22:47:24.127Z,51.56
2018-09-11T22:49:52.780Z,51.34
2018-09-11T22:52:21.436Z,51.43
2018-09-11T22:54:50.086Z,51.55
2018-09-11T22:57:18.787Z,52.53
2018-09-11T22:59:47.447Z,50.99
2018-09-11T23:02:16.145Z,51.53
2018-09-11T23:04:44.821Z,51.25
2018-09-11T23:07:13.472Z,51.17
2018-09-11T23:09:42.190Z,51.67
2018-09-11T23:12:10.866Z,51.52
2018-09-11T23:14:39.541Z,51.84
2018-09-11T23:17:08.151Z,52.11
2018-09-11T23:19:36.793Z,51.10
2018-09-11T23:22:05.604Z,52.62
2018-09-11T23:24:34.261Z,52.68
2018-09-11T23:27:02.996Z,52.39
2018-09-11T23:29:31.612Z,52.90
2018-09-11T23:32:00.272Z,52.77
2018-09-11T23:34:28.944Z,51.58
2018-09-11T23:36:57.625Z,53.62
2018-09-11T23:39:26.349Z,53.39
2018-09-11T23:41:55.020Z,54.03
2018-09-11T23:44:23.815Z,52.42
2018-09-11T23:46:52.517Z,53.67
2018-09-11T23:49:21.296Z,53.44
2018-09-11T23:51:49.986Z,53.44
2018-09-11T23:54:18.779Z,53.68
2018-09-11T23:56:47.404Z,53.32
2018-09-11T23:59:16.056Z,53.23
